createdAt,value
2022-12-08T00:01:23.873Z,67.60
2022-12-08T00:03:51.693Z,66.41
2022-12-08T00:06:37.055Z,66.65
2022-12-08T00:09:22.051Z,66.28
2022-12-08T00:11:49.582Z,65.52
2022-12-08T00:14:16.286Z,64.26
2022-12-08T00:16:43.175Z,65.38
2022-12-08T00:19:10.282Z,65.53
2022-12-08T00:21:36.855Z,67.03
2022-12-08T00:24:03.757Z,65.99
2022-12-08T00:26:30.583Z,65.71
2022-12-08T00:28:57.531Z,65.26
2022-12-08T00:31:24.179Z,66.02
2022-12-08T00:33:50.904Z,65.73
2022-12-08T00:36:17.542Z,66.26
2022-12-08T00:38:45.057Z,66.09
2022-12-08T00:41:17.402Z,66.67
2022-12-08T00:43:44.354Z,67.06
2022-12-08T00:46:12.212Z,66.18
2022-12-08T00:48:39.607Z,66.10
2022-12-08T00:51:06.323Z,66.95
2022-12-08T00:53:32.995Z,66.85
2022-12-08T00:55:59.718Z,66.83
2022-12-08T00:58:26.476Z,67.03
2022-12-08T01:00:53.302Z,67.23
2022-12-08T01:03:20.051Z,67.47
2022-12-08T01:05:46.744Z,66.70
2022-12-08T01:08:13.466Z,65.75
2022-12-08T01:10:40.822Z,66.59
2022-12-08T01:13:07.561Z,67.34
2022-12-08T01:15:34.263Z,66.98
2022-12-08T01:18:01.033Z,64.98
2022-12-08T01:20:27.583Z,65.51
2022-12-08T01:22:54.348Z,66.36
2022-12-08T01:25:21.279Z,66.94
2022-12-08T01:27:48.358Z,68.15
2022-12-08T01:30:15.038Z,67.27
2022-12-08T01:32:41.846Z,67.94
2022-12-08T01:35:08.673Z,67.43
2022-12-08T01:37:35.365Z,67.81
2022-12-08T01:40:02.408Z,67.72
2022-12-08T01:42:30.798Z,68.19
2022-12-08T01:45:03.003Z,68.10
2022-12-08T01:47:41.770Z,68.28
2022-12-08T01:50:11.616Z,68.96
2022-12-08T01:52:46.736Z,67.43
2022-12-08T01:55:20.437Z,68.35
2022-12-08T01:57:54.636Z,68.87
2022-12-08T02:00:22.873Z,67.85
2022-12-08T02:02:57.472Z,68.22
2022-12-08T02:05:27.360Z,68.61
2022-12-08T02:07:55.729Z,68.00
2022-12-08T02:10:24.577Z,68.37
2022-12-08T02:12:53.978Z,67.82
2022-12-08T02:15:43.016Z,68.20
2022-12-08T02:18:19.297Z,67.94
2022-12-08T02:20:57.128Z,69.23
2022-12-08T02:23:35.784Z,68.60
2022-12-08T02:26:27.492Z,68.80
2022-12-08T02:29:13.353Z,68.27
2022-12-08T02:32:07.662Z,68.79
2022-12-08T02:34:37.756Z,68.28
2022-12-08T02:37:27.729Z,67.53
2022-12-08T02:40:06.961Z,67.61
2022-12-08T02:42:42.897Z,68.32
2022-12-08T02:45:33.992Z,68.00
2022-12-08T02:48:00.852Z,67.46
2022-12-08T02:50:27.961Z,67.00
2022-12-08T02:52:55.049Z,67.19
2022-12-08T02:55:32.002Z,67.68
2022-12-08T02:58:13.595Z,67.13
2022-12-08T03:00:57.383Z,67.07
2022-12-08T03:03:44.660Z,66.46
2022-12-08T03:06:33.379Z,65.70
2022-12-08T03:09:08.425Z,67.00
2022-12-08T03:11:47.491Z,66.96
2022-12-08T03:14:17.340Z,66.27
2022-12-08T03:16:48.384Z,66.87
2022-12-08T03:19:25.606Z,66.51
2022-12-08T03:22:02.771Z,66.71
2022-12-08T03:24:41.822Z,66.54
2022-12-08T03:27:16.703Z,66.00
2022-12-08T03:29:43.670Z,65.45
2022-12-08T03:32:22.469Z,65.39
2022-12-08T03:34:51.593Z,65.61
2022-12-08T03:37:18.486Z,65.46
2022-12-08T03:39:45.133Z,66.53
2022-12-08T03:42:12.153Z,66.13
2022-12-08T03:44:38.860Z,66.89
2022-12-08T03:47:05.526Z,67.17
2022-12-08T03:49:32.307Z,67.36
2022-12-08T03:51:58.867Z,66.94
2022-12-08T03:54:25.589Z,66.48
2022-12-08T03:56:52.446Z,66.77
2022-12-08T03:59:19.270Z,67.27
2022-12-08T04:01:45.962Z,66.27
2022-12-08T04:04:12.617Z,66.19
2022-12-08T04:06:39.233Z,66.41
2022-12-08T04:09:06.040Z,66.74
2022-12-08T04:11:32.728Z,67.19
2022-12-08T04:13:59.353Z,66.46
2022-12-08T04:16:27.889Z,67.16
2022-12-08T04:18:55.115Z,67.36
2022-12-08T04:21:21.970Z,67.05
2022-12-08T04:23:48.574Z,67.04
2022-12-08T04:26:15.847Z,67.91
2022-12-08T04:28:42.758Z,67.48
2022-12-08T04:31:10.721Z,67.59
2022-12-08T04:33:37.470Z,66.38
2022-12-08T04:36:05.469Z,66.90
2022-12-08T04:38:32.941Z,66.77
2022-12-08T04:40:59.785Z,67.32
2022-12-08T04:43:26.461Z,67.65
2022-12-08T04:45:53.136Z,65.69
2022-12-08T04:48:19.785Z,66.69
2022-12-08T04:50:46.449Z,67.50
2022-12-08T04:53:14.390Z,67.55
2022-12-08T04:55:43.917Z,68.73
2022-12-08T04:58:15.761Z,67.94
2022-12-08T05:00:43.361Z,66.88
2022-12-08T05:03:10.246Z,67.92
2022-12-08T05:05:36.783Z,69.00
2022-12-08T05:08:04.544Z,69.40
2022-12-08T05:10:31.772Z,69.18
2022-12-08T05:13:00.913Z,69.19
2022-12-08T05:15:27.669Z,69.62
2022-12-08T05:17:54.315Z,69.12
2022-12-08T05:20:21.299Z,70.05
2022-12-08T05:22:48.216Z,69.86
2022-12-08T05:25:15.042Z,69.50
2022-12-08T05:27:42.116Z,68.85
2022-12-08T05:30:08.933Z,70.13
2022-12-08T05:32:38.596Z,69.62
2022-12-08T05:35:05.595Z,69.82
2022-12-08T05:37:34.874Z,69.51
2022-12-08T05:40:02.058Z,69.48
2022-12-08T05:42:28.943Z,68.89
2022-12-08T05:44:55.598Z,69.52
2022-12-08T05:47:22.416Z,68.54
2022-12-08T05:49:48.965Z,69.12
2022-12-08T05:52:16.977Z,69.54
2022-12-08T05:54:44.325Z,69.05
2022-12-08T05:57:12.182Z,69.05
2022-12-08T05:59:39.756Z,68.72
2022-12-08T06:02:06.656Z,68.80
2022-12-08T06:04:33.548Z,68.83
2022-12-08T06:07:00.219Z,68.60
2022-12-08T06:09:26.989Z,69.13
2022-12-08T06:11:53.713Z,68.83
2022-12-08T06:14:20.556Z,68.25
2022-12-08T06:16:50.095Z,68.83
2022-12-08T06:19:17.823Z,69.45
2022-12-08T06:21:44.639Z,68.84
2022-12-08T06:24:12.096Z,69.35
2022-12-08T06:26:40.316Z,69.94
2022-12-08T06:29:07.805Z,70.13
2022-12-08T06:31:34.581Z,69.78
2022-12-08T06:34:01.449Z,68.66
2022-12-08T06:36:29.024Z,69.38
2022-12-08T06:38:56.711Z,69.11
2022-12-08T06:41:23.529Z,69.25
2022-12-08T06:43:50.128Z,68.59
2022-12-08T06:46:19.040Z,69.08
2022-12-08T06:48:46.080Z,69.93
2022-12-08T06:51:16.299Z,69.62
2022-12-08T06:53:43.919Z,70.11
2022-12-08T06:56:12.022Z,70.42
2022-12-08T06:58:38.739Z,68.81
2022-12-08T07:01:11.871Z,68.81
2022-12-08T07:03:39.814Z,69.57
2022-12-08T07:06:07.024Z,68.57
2022-12-08T07:08:34.445Z,67.85
2022-12-08T07:11:07.781Z,67.57
2022-12-08T07:13:34.633Z,68.12
2022-12-08T07:16:01.169Z,67.56
2022-12-08T07:18:27.846Z,68.42
2022-12-08T07:20:54.419Z,68.33
2022-12-08T07:23:21.047Z,68.31
2022-12-08T07:25:47.629Z,67.60
2022-12-08T07:28:14.326Z,67.71
2022-12-08T07:30:41.208Z,68.54
2022-12-08T07:33:07.920Z,67.58
2022-12-08T07:35:35.385Z,67.78
2022-12-08T07:38:02.450Z,68.32
2022-12-08T07:40:29.309Z,67.82
2022-12-08T07:42:55.918Z,68.13
2022-12-08T07:45:28.218Z,67.31
2022-12-08T07:47:58.126Z,67.63
2022-12-08T07:50:24.639Z,68.57
2022-12-08T07:52:51.801Z,67.07
2022-12-08T07:55:18.428Z,67.27
2022-12-08T07:57:44.963Z,67.78
2022-12-08T08:00:12.377Z,67.30
2022-12-08T08:02:39.331Z,67.27
2022-12-08T08:05:06.557Z,67.24
2022-12-08T08:07:33.406Z,67.38
2022-12-08T08:09:59.985Z,67.75
2022-12-08T08:12:31.636Z,67.28
2022-12-08T08:15:00.193Z,67.14
2022-12-08T08:17:27.394Z,67.49
2022-12-08T08:19:54.207Z,67.21
2022-12-08T08:22:20.962Z,66.88
2022-12-08T08:24:47.585Z,66.19
2022-12-08T08:27:14.401Z,66.44
2022-12-08T08:29:41.119Z,66.03
2022-12-08T08:32:07.804Z,66.49
2022-12-08T08:34:34.499Z,65.99
2022-12-08T08:37:02.019Z,66.54
2022-12-08T08:39:30.175Z,66.41
2022-12-08T08:41:57.005Z,66.37
2022-12-08T08:44:23.928Z,66.49
2022-12-08T08:46:52.014Z,66.31
2022-12-08T08:49:18.821Z,66.23
2022-12-08T08:51:46.224Z,65.90
2022-12-08T08:54:13.021Z,64.66
2022-12-08T08:56:39.590Z,65.48
2022-12-08T08:59:06.720Z,64.68
2022-12-08T09:01:34.152Z,64.08
2022-12-08T09:04:01.462Z,63.28
2022-12-08T09:06:28.556Z,63.43
2022-12-08T09:08:55.583Z,62.47
2022-12-08T09:11:23.544Z,63.42
2022-12-08T09:13:51.677Z,63.10
2022-12-08T09:16:19.276Z,62.52
2022-12-08T09:18:46.313Z,61.62
2022-12-08T09:21:16.726Z,62.03
2022-12-08T09:23:44.076Z,60.47
2022-12-08T09:26:10.834Z,61.01
2022-12-08T09:28:37.634Z,61.83
2022-12-08T09:31:04.799Z,61.05
2022-12-08T09:33:31.761Z,60.55
2022-12-08T09:36:02.847Z,60.48
2022-12-08T09:38:31.953Z,59.71
2022-12-08T09:40:59.778Z,61.06
2022-12-08T09:43:38.160Z,60.50
2022-12-08T09:46:10.550Z,60.81
2022-12-08T09:48:47.544Z,60.38
2022-12-08T09:51:16.275Z,60.11
2022-12-08T09:53:48.272Z,59.43
2022-12-08T09:56:14.936Z,61.16
2022-12-08T09:58:53.792Z,60.73
2022-12-08T10:01:26.721Z,60.53
2022-12-08T10:03:55.957Z,59.83
2022-12-08T10:06:33.566Z,59.01
2022-12-08T10:09:29.343Z,59.49
2022-12-08T10:12:19.970Z,59.05
2022-12-08T10:14:54.861Z,59.99
2022-12-08T10:17:42.614Z,60.32
2022-12-08T10:20:15.183Z,58.70
2022-12-08T10:22:44.867Z,58.83
2022-12-08T10:25:35.269Z,57.89
2022-12-08T10:28:01.972Z,58.95
2022-12-08T10:30:28.644Z,58.46
2022-12-08T10:32:55.493Z,58.49
2022-12-08T10:35:23.408Z,56.52
2022-12-08T10:37:58.999Z,56.53
2022-12-08T10:40:29.368Z,57.73
2022-12-08T10:43:01.396Z,57.70
2022-12-08T10:45:37.683Z,56.76
2022-12-08T10:48:12.964Z,56.61
2022-12-08T10:50:45.691Z,57.35
2022-12-08T10:53:14.221Z,57.68
2022-12-08T10:55:47.778Z,56.09
2022-12-08T10:58:41.931Z,57.16
2022-12-08T11:01:26.677Z,55.81
2022-12-08T11:04:05.310Z,55.28
2022-12-08T11:06:35.458Z,54.40
2022-12-08T11:09:06.780Z,54.51
2022-12-08T11:11:48.060Z,54.64
2022-12-08T11:14:26.250Z,52.50
2022-12-08T11:16:56.460Z,54.55
2022-12-08T11:19:27.964Z,53.88
2022-12-08T11:21:54.791Z,53.33
2022-12-08T11:24:25.786Z,53.83
2022-12-08T11:26:59.281Z,55.15
2022-12-08T11:29:28.179Z,54.66
2022-12-08T11:32:17.675Z,54.28
2022-12-08T11:35:06.780Z,54.07
2022-12-08T11:37:40.205Z,55.30
2022-12-08T11:40:20.331Z,55.12
2022-12-08T11:43:05.691Z,54.10
2022-12-08T11:45:35.194Z,53.49
2022-12-08T11:48:24.986Z,54.52
2022-12-08T11:51:03.516Z,53.39
2022-12-08T11:53:43.055Z,53.81
2022-12-08T11:56:29.933Z,53.88
2022-12-08T11:59:01.639Z,54.00
2022-12-08T12:01:28.295Z,54.39
2022-12-08T12:03:58.040Z,55.33
2022-12-08T12:06:57.809Z,55.94
2022-12-08T12:09:58.232Z,55.99
2022-12-08T12:12:52.579Z,54.86
2022-12-08T12:15:28.465Z,54.92
2022-12-08T12:18:16.745Z,54.96
2022-12-08T12:21:07.878Z,53.79
2022-12-08T12:24:02.536Z,54.49
2022-12-08T12:26:31.916Z,53.62
2022-12-08T12:29:05.850Z,51.93
2022-12-08T12:31:37.309Z,53.08
2022-12-08T12:34:27.554Z,53.93
2022-12-08T12:36:58.219Z,53.50
2022-12-08T12:39:30.384Z,54.35
2022-12-08T12:42:00.927Z,54.77
2022-12-08T12:44:27.700Z,54.03
2022-12-08T12:47:01.407Z,53.42
2022-12-08T12:49:40.597Z,52.02
2022-12-08T12:52:10.365Z,50.89
2022-12-08T12:54:42.659Z,50.68
2022-12-08T12:57:09.454Z,49.79
2022-12-08T12:59:55.173Z,50.90
2022-12-08T13:02:33.388Z,51.03
2022-12-08T13:05:15.716Z,50.60
2022-12-08T13:07:50.012Z,50.15
2022-12-08T13:10:19.124Z,50.62
2022-12-08T13:13:01.362Z,49.65
2022-12-08T13:15:35.048Z,47.55
2022-12-08T13:18:02.009Z,49.69
2022-12-08T13:20:28.748Z,51.78
2022-12-08T13:23:26.304Z,52.52
2022-12-08T13:26:09.250Z,51.26
2022-12-08T13:28:58.367Z,51.69
2022-12-08T13:31:45.050Z,50.65
2022-12-08T13:34:30.170Z,50.15
2022-12-08T13:37:15.489Z,50.66
2022-12-08T13:39:49.790Z,49.54
2022-12-08T13:42:35.247Z,50.81
2022-12-08T13:45:39.820Z,50.93
2022-12-08T13:48:23.548Z,51.52
2022-12-08T13:59:19.219Z,50.71
2022-12-08T14:01:48.460Z,53.07
2022-12-08T14:04:42.567Z,52.51
2022-12-08T14:07:06.103Z,52.99
2022-12-08T14:09:36.808Z,53.82
2022-12-08T14:12:23.092Z,54.13
2022-12-08T14:15:02.968Z,56.06
2022-12-08T14:17:30.646Z,55.14
2022-12-08T14:19:58.655Z,54.67
2022-12-08T14:22:32.304Z,55.56
2022-12-08T14:24:59.019Z,55.13
2022-12-08T14:27:30.049Z,55.54
2022-12-08T14:30:00.309Z,55.34
2022-12-08T14:32:33.115Z,54.59
2022-12-08T14:35:08.877Z,54.61
2022-12-08T14:37:42.247Z,54.70
2022-12-08T14:40:28.747Z,55.84
2022-12-08T14:43:07.730Z,56.47
2022-12-08T14:45:40.557Z,57.12
2022-12-08T14:48:30.878Z,57.13
2022-12-08T14:51:03.240Z,56.69
2022-12-08T14:53:39.615Z,56.01
2022-12-08T14:56:09.701Z,56.46
2022-12-08T14:58:36.390Z,56.19
2022-12-08T15:01:06.451Z,56.21
2022-12-08T15:03:33.497Z,56.93
2022-12-08T15:06:06.354Z,56.94
2022-12-08T15:08:33.620Z,56.37
2022-12-08T15:11:34.185Z,57.24
2022-12-08T15:14:01.021Z,57.07
2022-12-08T15:16:32.048Z,57.22
2022-12-08T15:19:04.229Z,56.88
2022-12-08T15:21:37.048Z,57.07
2022-12-08T15:24:03.723Z,57.02
2022-12-08T15:26:39.133Z,57.22
2022-12-08T15:29:18.912Z,56.71
2022-12-08T15:31:46.220Z,56.70
2022-12-08T15:34:12.931Z,57.67
2022-12-08T15:36:40.135Z,57.07
2022-12-08T15:39:11.108Z,56.51
2022-12-08T15:41:38.058Z,55.86
2022-12-08T15:44:04.569Z,55.26
2022-12-08T15:46:31.921Z,54.92
2022-12-08T15:48:58.595Z,54.92
2022-12-08T15:51:25.251Z,54.55
2022-12-08T15:53:53.710Z,54.78
2022-12-08T15:56:27.463Z,54.66
2022-12-08T15:59:03.764Z,56.36
2022-12-08T16:01:30.476Z,57.50
2022-12-08T16:09:38.713Z,59.90
2022-12-08T16:13:13.899Z,59.62
2022-12-08T16:18:23.203Z,58.91
2022-12-08T16:23:45.230Z,58.79
2022-12-08T16:26:54.682Z,59.25
2022-12-08T16:29:07.169Z,58.59
2022-12-08T16:31:35.001Z,58.32
2022-12-08T16:34:01.768Z,57.95
2022-12-08T16:36:28.536Z,58.45
2022-12-08T16:38:55.158Z,57.17
2022-12-08T16:41:40.410Z,56.72
2022-12-08T16:44:07.063Z,56.59
2022-12-08T16:46:33.886Z,56.67
2022-12-08T16:49:00.419Z,58.24
2022-12-08T16:51:27.644Z,58.98
2022-12-08T16:53:58.489Z,58.39
2022-12-08T16:56:32.298Z,58.47
2022-12-08T16:59:00.750Z,57.85
2022-12-08T17:01:28.864Z,58.05
2022-12-08T17:04:22.948Z,58.14
2022-12-08T17:06:42.570Z,59.06
2022-12-08T17:09:09.361Z,58.78
2022-12-08T17:11:42.702Z,58.55
2022-12-08T17:14:13.087Z,58.41
2022-12-08T17:16:40.465Z,57.21
2022-12-08T17:19:07.255Z,57.90
2022-12-08T17:21:34.140Z,57.76
2022-12-08T17:24:00.779Z,57.49
2022-12-08T17:26:27.609Z,56.88
2022-12-08T17:29:01.942Z,56.70
2022-12-08T17:31:31.472Z,57.54
2022-12-08T17:34:04.230Z,57.47
2022-12-08T17:36:30.989Z,57.10
2022-12-08T17:38:59.936Z,57.79
2022-12-08T17:41:27.062Z,57.08
2022-12-08T17:43:53.789Z,57.39
2022-12-08T17:46:21.385Z,57.62
2022-12-08T17:48:48.543Z,57.40
2022-12-08T17:51:15.482Z,57.46
2022-12-08T17:53:42.709Z,57.41
2022-12-08T17:56:18.177Z,56.83
2022-12-08T17:58:45.649Z,56.75
2022-12-08T18:01:19.430Z,56.42
2022-12-08T18:03:47.323Z,56.75
2022-12-08T18:06:13.994Z,56.01
2022-12-08T18:08:40.930Z,56.33
2022-12-08T18:11:11.299Z,56.42
2022-12-08T18:13:38.067Z,57.06
2022-12-08T18:16:06.646Z,57.55
2022-12-08T18:18:33.335Z,58.22
2022-12-08T18:20:59.925Z,58.13
2022-12-08T18:23:27.894Z,57.88
2022-12-08T18:25:54.583Z,58.31
2022-12-08T18:28:21.638Z,58.62
2022-12-08T18:30:48.385Z,58.06
2022-12-08T18:33:15.120Z,57.78
2022-12-08T18:35:42.317Z,57.47
2022-12-08T18:38:08.865Z,58.70
2022-12-08T18:40:35.569Z,57.63
2022-12-08T18:43:02.189Z,57.38
2022-12-08T18:45:28.882Z,57.78
2022-12-08T18:47:55.659Z,56.26
2022-12-08T18:50:22.376Z,56.17
2022-12-08T18:52:49.024Z,56.50
2022-12-08T18:55:16.052Z,56.92
2022-12-08T18:57:43.379Z,56.81
2022-12-08T19:00:16.557Z,56.67
2022-12-08T19:02:43.652Z,56.30
2022-12-08T19:05:12.941Z,56.69
2022-12-08T19:07:39.675Z,56.77
2022-12-08T19:10:07.574Z,56.45
2022-12-08T19:12:34.581Z,56.42
2022-12-08T19:15:01.299Z,55.66
2022-12-08T19:17:29.659Z,55.99
2022-12-08T19:19:56.568Z,57.02
2022-12-08T19:22:23.241Z,56.70
2022-12-08T19:24:49.918Z,57.57
2022-12-08T19:27:16.999Z,57.45
2022-12-08T19:29:43.660Z,58.65
2022-12-08T19:32:10.345Z,58.64
2022-12-08T19:34:37.029Z,58.63
2022-12-08T19:37:03.817Z,59.02
2022-12-08T19:39:49.060Z,58.67
2022-12-08T19:42:37.091Z,58.68
2022-12-08T19:45:30.334Z,59.76
2022-12-08T19:47:57.046Z,60.71
2022-12-08T19:50:41.476Z,60.34
2022-12-08T19:53:15.717Z,59.45
2022-12-08T19:55:43.507Z,60.37
2022-12-08T19:58:11.174Z,60.45
2022-12-08T20:00:39.646Z,59.76
2022-12-08T20:03:08.071Z,59.11
2022-12-08T20:05:36.750Z,59.30
2022-12-08T20:08:07.229Z,60.89
2022-12-08T20:10:36.921Z,61.18
2022-12-08T20:13:23.496Z,61.71
2022-12-08T20:15:53.444Z,61.35
2022-12-08T20:18:20.340Z,61.40
2022-12-08T20:20:48.088Z,61.42
2022-12-08T20:23:15.718Z,61.70
2022-12-08T20:25:44.815Z,61.93
2022-12-08T20:28:12.313Z,62.48
2022-12-08T20:30:43.301Z,62.44
2022-12-08T20:33:13.129Z,61.87
2022-12-08T20:35:40.027Z,62.29
2022-12-08T20:38:06.508Z,61.88
2022-12-08T20:40:33.327Z,61.36
2022-12-08T20:42:59.924Z,59.96
2022-12-08T20:45:26.775Z,60.49
2022-12-08T20:47:53.852Z,60.50
2022-12-08T20:50:22.876Z,59.75
2022-12-08T20:52:50.672Z,61.20
2022-12-08T20:55:17.659Z,61.78
2022-12-08T20:57:44.468Z,62.61
2022-12-08T21:00:12.043Z,62.38
2022-12-08T21:02:45.077Z,62.28
2022-12-08T21:05:14.397Z,63.19
2022-12-08T21:07:41.336Z,63.67
2022-12-08T21:10:09.106Z,64.84
2022-12-08T21:12:36.077Z,65.23
2022-12-08T21:15:02.958Z,64.72
2022-12-08T21:17:30.019Z,65.46
2022-12-08T21:19:56.682Z,65.72
2022-12-08T21:22:23.351Z,65.97
2022-12-08T21:24:50.491Z,66.85
2022-12-08T21:27:17.920Z,66.54
2022-12-08T21:29:45.261Z,67.42
2022-12-08T21:32:13.319Z,66.54
2022-12-08T21:34:40.487Z,66.29
2022-12-08T21:37:07.417Z,66.15
2022-12-08T21:39:34.660Z,66.24
2022-12-08T21:42:22.745Z,65.99
2022-12-08T21:44:49.896Z,66.10
2022-12-08T21:47:16.834Z,66.02
2022-12-08T21:49:43.812Z,65.79
2022-12-08T21:52:11.297Z,65.90
2022-12-08T21:54:37.871Z,64.60
2022-12-08T21:57:05.300Z,64.26
2022-12-08T21:59:32.185Z,63.90
2022-12-08T22:01:59.378Z,62.86
2022-12-08T22:04:26.482Z,62.99
2022-12-08T22:06:54.005Z,62.56
2022-12-08T22:09:20.925Z,62.22
2022-12-08T22:11:47.876Z,62.84
2022-12-08T22:14:15.521Z,64.04
2022-12-08T22:16:43.369Z,64.13
2022-12-08T22:19:10.689Z,65.61
2022-12-08T22:21:38.267Z,65.11
2022-12-08T22:24:06.191Z,65.24
2022-12-08T22:26:33.584Z,66.18
2022-12-08T22:29:00.476Z,66.31
2022-12-08T22:31:27.819Z,66.44
2022-12-08T22:33:55.307Z,66.43
2022-12-08T22:36:24.558Z,67.28
2022-12-08T22:38:52.408Z,67.08
2022-12-08T22:41:20.408Z,67.87
2022-12-08T22:43:47.932Z,68.02
2022-12-08T22:46:20.770Z,67.17
2022-12-08T22:48:48.201Z,66.91
2022-12-08T22:51:15.811Z,66.29
2022-12-08T22:53:42.570Z,64.83
2022-12-08T22:56:11.839Z,64.91
2022-12-08T22:58:39.886Z,65.56
2022-12-08T23:01:07.542Z,65.28
2022-12-08T23:03:35.114Z,66.69
2022-12-08T23:06:02.486Z,66.60
2022-12-08T23:08:30.165Z,67.58
2022-12-08T23:10:57.947Z,66.49
2022-12-08T23:13:24.910Z,64.82
2022-12-08T23:15:51.429Z,65.31
2022-12-08T23:18:19.326Z,65.35
2022-12-08T23:20:47.170Z,66.90
2022-12-08T23:23:14.263Z,65.83
2022-12-08T23:25:41.795Z,66.49
2022-12-08T23:28:09.405Z,66.21
2022-12-08T23:30:36.506Z,66.48
2022-12-08T23:33:03.237Z,66.46
2022-12-08T23:35:29.931Z,67.18
2022-12-08T23:37:56.775Z,66.89
2022-12-08T23:40:23.408Z,66.94
2022-12-08T23:42:50.086Z,66.49
2022-12-08T23:45:16.838Z,67.18
2022-12-08T23:47:43.702Z,67.42
2022-12-08T23:50:11.227Z,67.35
2022-12-08T23:52:39.897Z,68.27
2022-12-08T23:55:07.839Z,68.18
2022-12-08T23:57:38.602Z,68.44
